Portada
METAR-TAF:

METAR-TAF

Aeroports :

Nouakchott, Mauritània

latitud: 18-18-36N, longitud: 015-58-11W, altitud: 3 m

Observació

L'informe es va fer fa 21 minuts, a les 11:00 UTC
Vent 6 kt del Est/Sud-Est, variant entre Est i Sud/Sud-Est
Temperatura 28°C
Humitat 16%
Pressió 1012 hPa
Visibilitat: 8000 m

METAR: GQNO 141100Z 12006KT 090V150 8000 NSC 28/00 Q1012 NOSIG

Hora: 11:21 (11:21 UTC)

Pronòstic

L'informe es va fer fa 5 hores i 51 minuts, a les 05:30 UTC
Pronòstic vàlid del 14 a les 06 UTC al 15 a les 12 UTC
Vent 8 kt del Nord-Est
Visibilitat: 4000 m
Pols estès
Evolucionant progressivament
l' 14 a les 15 UTC al 14 a les 17 UTC
Vent 12 kt del Nord/Nord-Oest
Visibilitat: 6000 m
Evolucionant progressivament
l' 15 a les 08 UTC al 15 a les 10 UTC
Vent 10 kt del Est/Nord-Est
Visibilitat: 4000 m
torb alta de pols

TAF: GQNO 140530Z 1406/1512 04008KT 4000 DU NSC BECMG 1415/1417 34012KT 6000 NSW BECMG 1508/1510 06010KT 4000 BLDU

Observacions i pronòstics meteorològics de més de 4000 aeroports (METAR i TAF).

Les estacions disponibles són els punts grocs i vermells al mapa.

Posi el ratolí al punt desitjat per veure el nom de l'estació.

Feu clic per veure les observacions i els pronòstics meteorològics.

Per canviar el mapa: feu clic els botons verds amb una creu de color negre per apropar; al botó verd amb un guió per allunyar la imatge; o en les fletxes verdes per a mapes adjacents.


METAR-TAF: